Statia Express — V7TT3 — position and weather

sailwx.info

Track history (hours):
 
Tides and Currents Weather Stations Pressure Air Temp Water Temp Dewpoint Dewpoint Depression Visibility Wind Speed Wind Dir Waves Ship Positions

Statia Express

Last reported at 2014-Oct-30 01:30 UTC. Time now 2014-Oct-30 12:24 UTC.
Position N 17°41' W 063°04'.

Length 28 m; draft 4.1 m.

Type: Tug. MMSI: 538003879.

Date/timePositionNaut miles runAvg speedWind from/ knotsBaromVisibWave heightAir tempDewpointWater temp
2014-Oct-30 01:30N 17°41' W 063°04'6 5.5
2014-Oct-30 00:19N 17°47' W 063°04'5 5.6
2014-Oct-29 23:21N 17°52' W 063°05'7 5.7
2014-Oct-29 22:08N 17°60' W 063°05'2 2.5
2014-Oct-29 21:18N 18°01' W 063°03'0 0.1
2014-Oct-29 20:20N 18°01' W 063°03'1 1.2
2014-Oct-29 19:32N 18°01' W 063°04'1 1.0
2014-Oct-29 18:14N 18°01' W 063°05'0 0.0
2014-Oct-29 17:30N 18°01' W 063°05'0 0.0
2014-Oct-29 16:24N 18°01' W 063°05'0 0.0
2014-Oct-29 15:30N 18°01' W 063°05'0 0.0
2014-Oct-29 14:23N 18°01' W 063°05'0 0.0
2014-Oct-29 13:32N 18°01' W 063°05'0 0.0
2014-Oct-29 12:19N 18°01' W 063°05'0 0.1
2014-Oct-29 11:33N 18°01' W 063°05'6 4.5
2014-Oct-29 10:12N 17°55' W 063°04'5 6.9
2014-Oct-29 09:30N 17°50' W 063°03'  
Track history (hours):
 
Tides and Currents Weather Stations Pressure Air Temp Water Temp Dewpoint Dewpoint Depression Visibility Wind Speed Wind Dir Waves Ship Positions

Statia Express

Last reported at 2014-Oct-30 01:30 UTC. Time now 2014-Oct-30 12:24 UTC.
Position N 17°41' W 063°04'.

Length 28 m; draft 4.1 m.

Type: Tug. MMSI: 538003879.

Date/timePositionNaut miles runAvg speedWind from/ knotsBaromVisibWave heightAir tempDewpointWater temp
2014-Oct-30 01:30N 17°41' W 063°04'6 5.5
2014-Oct-30 00:19N 17°47' W 063°04'5 5.6
2014-Oct-29 23:21N 17°52' W 063°05'7 5.7
2014-Oct-29 22:08N 17°60' W 063°05'2 2.5
2014-Oct-29 21:18N 18°01' W 063°03'0 0.1
2014-Oct-29 20:20N 18°01' W 063°03'1 1.2
2014-Oct-29 19:32N 18°01' W 063°04'1 1.0
2014-Oct-29 18:14N 18°01' W 063°05'0 0.0
2014-Oct-29 17:30N 18°01' W 063°05'0 0.0
2014-Oct-29 16:24N 18°01' W 063°05'0 0.0
2014-Oct-29 15:30N 18°01' W 063°05'0 0.0
2014-Oct-29 14:23N 18°01' W 063°05'0 0.0
2014-Oct-29 13:32N 18°01' W 063°05'0 0.0
2014-Oct-29 12:19N 18°01' W 063°05'0 0.1
2014-Oct-29 11:33N 18°01' W 063°05'6 4.5
2014-Oct-29 10:12N 17°55' W 063°04'5 6.9
2014-Oct-29 09:30N 17°50' W 063°03'  

Dump ship's entire track history